createdAt,value
2023-01-19T00:00:37.917Z,-0.20
2023-01-19T00:03:05.954Z,0.00
2023-01-19T00:05:34.114Z,0.10
2023-01-19T00:08:15.114Z,0.20
2023-01-19T00:10:44.028Z,0.20
2023-01-19T00:13:14.018Z,0.20
2023-01-19T00:15:41.673Z,0.20
2023-01-19T00:18:12.046Z,0.10
2023-01-19T00:20:40.026Z,0.00
2023-01-19T00:23:10.833Z,-0.10
2023-01-19T00:25:44.623Z,-0.10
2023-01-19T00:28:13.416Z,-0.10
2023-01-19T00:30:41.696Z,-0.10
2023-01-19T00:33:12.131Z,-0.10
2023-01-19T00:35:39.780Z,-0.20
2023-01-19T00:38:07.136Z,-0.20
2023-01-19T00:40:37.497Z,-0.30
2023-01-19T00:43:05.414Z,-0.40
2023-01-19T00:45:33.286Z,-0.40
2023-01-19T00:48:00.596Z,-0.40
2023-01-19T00:50:29.006Z,-0.30
2023-01-19T00:53:03.806Z,-0.30
2023-01-19T00:55:31.600Z,-0.40
2023-01-19T00:58:01.053Z,-0.40
2023-01-19T01:00:31.462Z,-0.40
2023-01-19T01:03:01.884Z,-0.30
2023-01-19T01:05:29.617Z,-0.30
2023-01-19T01:07:57.316Z,-0.20
2023-01-19T01:10:29.609Z,-0.20
2023-01-19T01:12:59.200Z,-0.20
2023-01-19T01:21:07.832Z,-0.20
2023-01-19T01:23:39.663Z,-0.30
2023-01-19T01:26:07.309Z,-0.20
2023-01-19T01:28:35.497Z,-0.10
2023-01-19T01:31:02.985Z,-0.10
2023-01-19T01:33:40.865Z,0.00
2023-01-19T01:36:10.161Z,0.20
2023-01-19T01:38:39.038Z,0.30
2023-01-19T01:41:07.355Z,0.30
2023-01-19T01:43:46.898Z,0.40
2023-01-19T01:46:17.645Z,0.50
2023-01-19T01:48:46.944Z,0.60
2023-01-19T01:51:33.343Z,0.60
2023-01-19T01:54:00.881Z,0.70
2023-01-19T01:56:32.942Z,0.80
2023-01-19T01:59:01.880Z,0.80
2023-01-19T02:01:47.955Z,0.70
2023-01-19T02:04:15.503Z,0.50
2023-01-19T02:07:01.613Z,0.50
2023-01-19T02:09:48.530Z,0.50
2023-01-19T02:12:34.583Z,0.40
2023-01-19T02:15:05.007Z,0.40
2023-01-19T02:17:32.611Z,0.40
2023-01-19T02:20:00.029Z,0.40
2023-01-19T02:22:36.135Z,0.50
2023-01-19T02:25:04.739Z,0.40
2023-01-19T02:27:32.526Z,0.30
2023-01-19T02:30:00.924Z,0.20
2023-01-19T02:32:28.966Z,0.20
2023-01-19T02:34:56.474Z,0.30
2023-01-19T02:37:24.498Z,0.40
2023-01-19T02:39:53.485Z,0.50
2023-01-19T02:42:36.464Z,0.50
2023-01-19T02:45:07.435Z,0.50
2023-01-19T02:47:39.204Z,0.50
2023-01-19T02:50:27.830Z,0.60
2023-01-19T02:53:01.103Z,0.60
2023-01-19T02:55:29.652Z,0.50
2023-01-19T02:58:04.003Z,0.50
2023-01-19T03:00:33.102Z,0.50
2023-01-19T03:03:10.733Z,0.40
2023-01-19T03:05:47.085Z,0.40
2023-01-19T03:08:22.497Z,0.60
2023-01-19T03:11:02.213Z,0.70
2023-01-19T03:13:30.282Z,0.80
2023-01-19T03:16:12.610Z,0.90
2023-01-19T03:18:43.110Z,0.90
2023-01-19T03:21:15.519Z,1.00
2023-01-19T03:23:46.694Z,1.00
2023-01-19T03:26:16.441Z,1.00
2023-01-19T03:28:48.713Z,0.90
2023-01-19T03:34:18.327Z,1.00
2023-01-19T03:37:27.421Z,1.10
2023-01-19T03:39:57.807Z,1.10
2023-01-19T03:45:54.477Z,1.00
2023-01-19T03:45:58.805Z,1.00
2023-01-19T03:48:28.697Z,0.90
2023-01-19T03:51:24.123Z,1.00
2023-01-19T03:54:03.174Z,1.00
2023-01-19T04:08:08.651Z,0.90
2023-01-19T04:10:39.517Z,0.90
2023-01-19T04:13:07.215Z,0.90
2023-01-19T04:15:53.797Z,0.80
2023-01-19T04:18:21.446Z,0.40
2023-01-19T04:20:52.757Z,0.20
2023-01-19T04:23:20.227Z,0.20
2023-01-19T04:25:50.709Z,0.00
2023-01-19T04:28:26.258Z,-0.20
2023-01-19T04:30:57.576Z,-0.40
2023-01-19T04:40:08.338Z,0.20
2023-01-19T04:42:58.933Z,0.30
2023-01-19T04:45:25.954Z,0.40
2023-01-19T04:47:52.716Z,0.50
2023-01-19T04:50:19.617Z,0.50
2023-01-19T04:52:46.745Z,0.40
2023-01-19T04:55:13.590Z,0.10
2023-01-19T04:57:40.703Z,0.10
2023-01-19T05:00:10.037Z,0.10
2023-01-19T05:09:19.895Z,0.30
2023-01-19T05:11:46.910Z,0.30
2023-01-19T05:14:13.718Z,0.40
2023-01-19T05:16:40.567Z,0.50
2023-01-19T05:19:07.534Z,0.70
2023-01-19T05:21:34.326Z,0.70
2023-01-19T05:24:05.608Z,0.80
2023-01-19T05:26:38.488Z,0.90
2023-01-19T05:29:05.315Z,0.90
2023-01-19T05:31:34.871Z,1.00
2023-01-19T05:34:01.790Z,1.00
2023-01-19T05:36:28.667Z,1.00
2023-01-19T05:38:55.612Z,1.00
2023-01-19T05:41:22.471Z,1.00
2023-01-19T05:43:49.466Z,1.00
2023-01-19T05:46:16.478Z,1.00
2023-01-19T05:48:43.562Z,1.10
2023-01-19T05:51:10.718Z,1.10
2023-01-19T05:53:37.652Z,1.20
2023-01-19T05:56:05.675Z,1.10
2023-01-19T05:58:34.469Z,0.90
2023-01-19T06:01:06.006Z,0.70
2023-01-19T06:03:34.096Z,0.40
2023-01-19T06:06:01.318Z,-0.30
2023-01-19T06:08:28.535Z,-1.20
2023-01-19T06:10:55.460Z,-1.60
2023-01-19T06:13:22.360Z,-1.90
2023-01-19T06:15:49.193Z,-2.20
2023-01-19T06:18:16.103Z,-2.30
2023-01-19T06:20:42.989Z,-2.30
2023-01-19T06:23:10.709Z,-2.40
2023-01-19T06:25:37.584Z,-2.50
2023-01-19T06:28:04.534Z,-2.40
2023-01-19T06:30:31.606Z,-2.50
2023-01-19T06:32:58.750Z,-2.50
2023-01-19T06:35:25.819Z,-2.40
2023-01-19T06:37:55.892Z,-2.30
2023-01-19T06:40:22.902Z,-2.30
2023-01-19T06:42:50.258Z,-2.30
2023-01-19T06:45:17.398Z,-2.20
2023-01-19T06:47:47.046Z,-2.30
2023-01-19T06:50:13.961Z,-2.30
2023-01-19T06:52:42.683Z,-2.10
2023-01-19T06:55:10.979Z,-1.90
2023-01-19T06:57:38.963Z,-1.80
2023-01-19T07:00:08.270Z,-1.70
2023-01-19T07:02:35.988Z,-1.60
2023-01-19T07:05:03.070Z,-1.70
2023-01-19T07:07:29.983Z,-1.80
2023-01-19T07:09:56.933Z,-1.70
2023-01-19T07:12:23.981Z,-1.80
2023-01-19T07:14:50.929Z,-1.80
2023-01-19T07:17:18.432Z,-2.00
2023-01-19T07:19:45.859Z,-2.20
2023-01-19T07:22:12.817Z,-2.50
2023-01-19T07:24:39.797Z,-2.60
2023-01-19T07:27:06.834Z,-2.70
2023-01-19T07:29:33.769Z,-2.70
2023-01-19T07:32:00.875Z,-2.70
2023-01-19T07:34:28.131Z,-2.70
2023-01-19T07:36:55.865Z,-2.80
2023-01-19T07:39:22.960Z,-2.60
2023-01-19T07:41:50.050Z,-2.20
2023-01-19T07:44:17.061Z,-1.70
2023-01-19T07:46:44.108Z,-1.40
2023-01-19T07:49:11.755Z,-1.00
2023-01-19T07:51:38.633Z,-0.70
2023-01-19T07:54:05.877Z,-0.30
2023-01-19T07:56:33.951Z,0.00
2023-01-19T07:59:01.306Z,0.20
2023-01-19T08:01:28.633Z,0.40
2023-01-19T08:03:55.651Z,0.70
2023-01-19T08:06:23.951Z,0.80
2023-01-19T08:08:50.964Z,0.80
2023-01-19T08:11:17.853Z,0.80
2023-01-19T08:13:44.834Z,0.90
2023-01-19T08:16:11.820Z,1.00
2023-01-19T08:18:39.035Z,1.20
2023-01-19T08:21:06.466Z,1.40
2023-01-19T08:23:33.431Z,1.60
2023-01-19T08:26:00.656Z,1.80
2023-01-19T08:28:27.703Z,1.90
2023-01-19T08:30:54.788Z,2.00
2023-01-19T08:33:23.222Z,2.10
2023-01-19T08:35:51.438Z,2.10
2023-01-19T08:38:18.830Z,2.20
2023-01-19T08:40:45.807Z,2.20
2023-01-19T08:43:14.623Z,2.20
2023-01-19T08:45:46.719Z,2.10
2023-01-19T08:48:14.035Z,2.20
2023-01-19T08:50:40.925Z,2.60
2023-01-19T08:53:08.078Z,3.20
2023-01-19T08:55:35.927Z,4.10
2023-01-19T08:58:06.331Z,4.60
2023-01-19T09:00:38.099Z,4.90
2023-01-19T09:03:06.699Z,5.10
2023-01-19T09:05:37.275Z,6.00
2023-01-19T09:08:11.435Z,7.00
2023-01-19T09:10:39.326Z,7.60
2023-01-19T09:13:08.575Z,7.40
2023-01-19T09:15:37.841Z,7.40
2023-01-19T09:18:06.269Z,7.40
2023-01-19T09:20:34.875Z,7.50
2023-01-19T09:23:02.615Z,7.40
2023-01-19T09:25:31.652Z,7.30
2023-01-19T09:28:02.949Z,6.50
2023-01-19T09:30:30.526Z,5.80
2023-01-19T09:33:01.369Z,5.70
2023-01-19T09:35:28.545Z,5.60
2023-01-19T09:37:55.513Z,5.60
2023-01-19T09:40:22.539Z,5.50
2023-01-19T09:43:05.525Z,5.80
2023-01-19T09:45:38.895Z,5.40
2023-01-19T09:48:13.527Z,5.10
2023-01-19T09:50:46.738Z,4.90
2023-01-19T09:53:21.676Z,4.70
2023-01-19T09:55:50.066Z,4.60
2023-01-19T09:58:19.292Z,4.50
2023-01-19T10:00:49.172Z,4.50
2023-01-19T10:03:16.830Z,4.30
2023-01-19T10:05:55.898Z,4.20
2023-01-19T10:08:31.963Z,4.00
2023-01-19T10:10:58.912Z,4.00
2023-01-19T10:13:32.635Z,4.00
2023-01-19T10:16:02.604Z,3.90
2023-01-19T10:18:43.485Z,4.00
2023-01-19T10:21:13.456Z,4.00
2023-01-19T10:23:55.621Z,4.00
2023-01-19T10:26:28.243Z,4.10
2023-01-19T10:29:01.840Z,4.20
2023-01-19T10:31:29.002Z,4.20
2023-01-19T10:33:55.977Z,4.30
2023-01-19T10:36:34.229Z,4.30
2023-01-19T10:39:01.468Z,4.30
2023-01-19T10:41:31.811Z,4.30
2023-01-19T10:44:00.835Z,4.30
2023-01-19T10:46:33.839Z,3.90
2023-01-19T10:49:01.144Z,3.60
2023-01-19T10:51:28.128Z,3.30
2023-01-19T10:53:55.465Z,3.40
2023-01-19T10:56:24.632Z,3.00
2023-01-19T10:58:51.820Z,3.00
2023-01-19T11:01:18.913Z,2.70
2023-01-19T11:03:45.946Z,2.40
2023-01-19T11:06:15.991Z,2.40
2023-01-19T11:08:43.830Z,2.50
2023-01-19T11:11:12.602Z,2.40
2023-01-19T11:13:40.412Z,2.50
2023-01-19T11:16:23.237Z,2.70
2023-01-19T11:18:52.480Z,2.30
2023-01-19T11:21:22.633Z,1.80
2023-01-19T11:23:53.993Z,1.60
2023-01-19T11:26:31.384Z,1.70
2023-01-19T11:28:58.897Z,1.90
2023-01-19T11:31:29.100Z,2.20
2023-01-19T11:34:05.616Z,2.40
2023-01-19T11:36:36.084Z,1.90
2023-01-19T11:39:24.413Z,2.20
2023-01-19T11:41:52.877Z,2.20
2023-01-19T11:44:22.410Z,2.60
2023-01-19T11:46:53.568Z,2.80
2023-01-19T11:49:24.488Z,2.70
2023-01-19T11:52:02.231Z,2.60
2023-01-19T11:54:31.679Z,2.70
2023-01-19T11:56:59.455Z,2.70
2023-01-19T11:59:26.508Z,3.00
2023-01-19T12:01:57.592Z,3.10
2023-01-19T12:04:36.636Z,3.20
2023-01-19T12:07:09.067Z,3.20
2023-01-19T12:09:38.970Z,3.50
2023-01-19T12:12:13.836Z,3.60
2023-01-19T12:14:40.751Z,3.70
2023-01-19T12:17:13.874Z,3.70
2023-01-19T12:19:46.693Z,3.40
2023-01-19T12:22:17.729Z,3.10
2023-01-19T12:24:52.578Z,2.80
2023-01-19T12:27:26.966Z,2.60
2023-01-19T12:29:55.311Z,2.30
2023-01-19T12:32:33.317Z,2.00
2023-01-19T12:35:00.462Z,2.10
2023-01-19T12:37:28.767Z,2.10
2023-01-19T12:39:57.215Z,1.70
2023-01-19T12:42:25.000Z,1.70
2023-01-19T12:45:08.796Z,2.00
2023-01-19T12:47:36.615Z,2.20
2023-01-19T12:50:25.848Z,2.20
2023-01-19T12:52:57.402Z,2.00
2023-01-19T12:55:27.470Z,1.90
2023-01-19T12:57:54.408Z,2.00
2023-01-19T13:00:24.455Z,1.80
2023-01-19T13:02:54.521Z,1.90
2023-01-19T13:05:44.495Z,1.90
2023-01-19T13:08:15.012Z,2.00
2023-01-19T13:11:00.523Z,2.20
2023-01-19T13:13:31.023Z,2.30
2023-01-19T13:16:16.956Z,2.40
2023-01-19T13:18:45.581Z,2.50
2023-01-19T13:21:12.674Z,2.70
2023-01-19T13:23:51.704Z,2.80
2023-01-19T13:26:18.623Z,2.80
2023-01-19T13:28:46.718Z,2.90
2023-01-19T13:31:14.193Z,2.90
2023-01-19T13:33:52.327Z,2.80
2023-01-19T13:36:22.859Z,2.70
2023-01-19T13:38:51.043Z,2.70
2023-01-19T13:41:20.787Z,2.50
2023-01-19T13:43:47.896Z,2.50
2023-01-19T13:46:17.889Z,2.20
2023-01-19T13:49:01.534Z,2.20
2023-01-19T13:51:28.438Z,2.30
2023-01-19T13:53:58.726Z,2.30
2023-01-19T13:56:29.636Z,2.20
2023-01-19T13:59:05.197Z,2.30
2023-01-19T14:01:33.115Z,2.20
2023-01-19T14:04:00.460Z,2.30
2023-01-19T14:06:36.013Z,2.20
2023-01-19T14:09:29.265Z,2.00
2023-01-19T14:12:06.888Z,1.80
2023-01-19T14:14:33.844Z,1.80
2023-01-19T14:17:00.839Z,1.90
2023-01-19T14:19:28.587Z,1.80
2023-01-19T14:21:59.992Z,1.90
2023-01-19T14:24:32.164Z,1.80
2023-01-19T14:27:10.333Z,1.80
2023-01-19T14:29:40.215Z,1.80
2023-01-19T14:32:10.235Z,1.80
2023-01-19T14:34:45.067Z,1.80
2023-01-19T14:37:26.594Z,1.80
2023-01-19T14:40:19.566Z,1.80
2023-01-19T14:42:49.321Z,1.70
2023-01-19T14:45:19.442Z,1.70
2023-01-19T14:47:54.401Z,1.70
2023-01-19T14:50:22.250Z,1.70
2023-01-19T14:52:56.392Z,1.70
2023-01-19T14:55:35.310Z,1.70
2023-01-19T14:58:02.904Z,1.60
2023-01-19T15:00:30.435Z,1.50
2023-01-19T15:02:59.720Z,1.60
2023-01-19T15:05:27.217Z,1.60
2023-01-19T15:07:54.141Z,1.60
2023-01-19T15:10:22.910Z,1.60
2023-01-19T15:12:50.890Z,1.60
2023-01-19T15:15:20.317Z,1.60
2023-01-19T15:17:47.946Z,1.40
2023-01-19T15:20:16.514Z,1.20
2023-01-19T15:22:43.684Z,1.20
2023-01-19T15:25:17.822Z,1.00
2023-01-19T15:27:46.065Z,0.90
2023-01-19T15:30:24.110Z,0.60
2023-01-19T15:32:51.901Z,0.40
2023-01-19T15:35:26.378Z,0.50
2023-01-19T15:37:54.594Z,0.40
2023-01-19T15:40:23.674Z,0.40
2023-01-19T15:42:51.273Z,0.40
2023-01-19T15:45:35.837Z,0.40
2023-01-19T15:48:04.992Z,0.40
2023-01-19T15:50:34.677Z,0.30
2023-01-19T15:53:21.937Z,0.20
2023-01-19T15:56:18.668Z,-0.10
2023-01-19T16:05:10.650Z,0.30
2023-01-19T16:08:04.297Z,0.50
2023-01-19T16:10:41.545Z,0.80
2023-01-19T16:15:18.050Z,0.90
2023-01-19T16:19:43.925Z,1.00
2023-01-19T16:25:07.634Z,0.80
2023-01-19T16:31:06.669Z,0.50
2023-01-19T16:33:51.122Z,0.40
2023-01-19T16:39:41.107Z,0.70
2023-01-19T16:42:28.268Z,1.00
2023-01-19T16:45:21.396Z,1.10
2023-01-19T16:51:25.308Z,1.20
2023-01-19T16:56:55.040Z,1.00
2023-01-19T17:02:29.534Z,1.00
2023-01-19T17:05:58.660Z,1.10
2023-01-19T17:08:30.680Z,1.00
2023-01-19T17:11:04.228Z,0.90
2023-01-19T17:13:47.054Z,0.90
2023-01-19T17:16:14.219Z,0.90
2023-01-19T17:18:50.368Z,0.50
2023-01-19T17:22:02.222Z,0.10
2023-01-19T17:24:53.689Z,-0.20
2023-01-19T17:27:48.415Z,-0.30
2023-01-19T17:30:32.353Z,-0.40
2023-01-19T17:33:03.803Z,-0.50
2023-01-19T17:35:42.244Z,-0.50
2023-01-19T17:38:09.488Z,-0.50
2023-01-19T17:40:40.858Z,-0.50
2023-01-19T17:43:25.565Z,-0.40
2023-01-19T17:45:57.466Z,-0.40
2023-01-19T17:48:34.057Z,-0.30
2023-01-19T17:51:21.046Z,-0.10
2023-01-19T17:54:08.025Z,-0.10
2023-01-19T17:56:58.775Z,-0.20
2023-01-19T17:59:55.453Z,-0.20
2023-01-19T18:05:22.057Z,-0.10
2023-01-19T18:07:49.402Z,-0.10
2023-01-19T18:10:17.334Z,-0.10
2023-01-19T18:12:48.171Z,-0.20
2023-01-19T18:15:16.908Z,-0.40
2023-01-19T18:17:44.512Z,-0.60
2023-01-19T18:20:12.179Z,-0.60
2023-01-19T18:22:39.863Z,-0.60
2023-01-19T18:25:10.480Z,-0.70
2023-01-19T18:27:37.862Z,-0.70
2023-01-19T18:30:05.126Z,-0.80
2023-01-19T18:35:15.981Z,-0.90
2023-01-19T18:37:43.487Z,-0.90
2023-01-19T18:40:11.820Z,-0.60
2023-01-19T18:42:39.501Z,-0.30
2023-01-19T18:45:06.836Z,-0.10
2023-01-19T18:47:34.888Z,0.20
2023-01-19T18:50:02.310Z,0.30
2023-01-19T18:52:29.345Z,0.50
2023-01-19T18:54:56.141Z,0.60
2023-01-19T18:57:23.072Z,0.70
2023-01-19T18:59:50.446Z,0.50
2023-01-19T19:02:18.010Z,0.30
2023-01-19T19:04:45.300Z,0.20
2023-01-19T19:07:12.175Z,0.00
2023-01-19T19:09:39.548Z,-0.10
2023-01-19T19:12:07.410Z,-0.10
2023-01-19T19:14:34.952Z,-0.20
2023-01-19T19:17:02.058Z,-0.30
2023-01-19T19:19:29.394Z,-0.50
2023-01-19T19:21:56.782Z,-0.60
2023-01-19T19:24:24.350Z,-0.60
2023-01-19T19:26:51.727Z,-0.70
2023-01-19T19:29:20.353Z,-0.70
2023-01-19T19:31:48.029Z,-0.70
2023-01-19T19:34:15.619Z,-0.60
2023-01-19T19:36:43.246Z,-0.60
2023-01-19T19:39:13.046Z,-0.60
2023-01-19T19:41:40.842Z,-0.60
2023-01-19T19:44:10.382Z,-0.60
2023-01-19T19:46:41.733Z,-0.60
2023-01-19T19:49:09.458Z,-0.40
2023-01-19T19:51:41.391Z,-0.20
2023-01-19T19:54:09.289Z,-0.20
2023-01-19T19:56:44.337Z,-0.20
2023-01-19T19:59:11.569Z,-0.30
2023-01-19T20:01:38.628Z,-0.20
2023-01-19T20:04:09.211Z,-0.20
2023-01-19T20:06:42.880Z,-0.40
2023-01-19T20:09:16.796Z,-0.40
2023-01-19T20:11:49.297Z,-0.60
2023-01-19T20:14:23.916Z,-0.60
2023-01-19T20:17:08.208Z,-0.70
2023-01-19T20:19:45.155Z,-0.80
2023-01-19T20:22:14.958Z,-0.90
2023-01-19T20:24:42.201Z,-1.00
2023-01-19T20:27:10.055Z,-0.90
2023-01-19T20:29:40.066Z,-1.00
2023-01-19T20:32:06.960Z,-1.10
2023-01-19T20:34:41.636Z,-1.00
2023-01-19T20:37:12.513Z,-0.80
2023-01-19T20:39:39.362Z,-0.60
2023-01-19T20:42:09.739Z,-0.30
2023-01-19T20:44:37.264Z,0.00
2023-01-19T20:47:08.447Z,0.20
2023-01-19T20:49:35.827Z,0.30
2023-01-19T20:52:03.055Z,0.30
2023-01-19T20:54:30.567Z,0.30
2023-01-19T20:56:57.656Z,0.40
2023-01-19T20:59:27.142Z,0.50
2023-01-19T21:01:57.452Z,0.50
2023-01-19T21:04:27.297Z,0.60
2023-01-19T21:07:15.074Z,0.60
2023-01-19T21:09:50.522Z,0.60
2023-01-19T21:12:23.454Z,0.60
2023-01-19T21:15:05.072Z,0.40
2023-01-19T21:17:50.233Z,0.00
2023-01-19T21:20:40.225Z,-0.30
2023-01-19T21:23:10.077Z,-0.60
2023-01-19T21:25:50.814Z,-0.70
2023-01-19T21:28:26.224Z,-0.90
2023-01-19T21:30:56.966Z,-1.10
2023-01-19T21:33:26.603Z,-1.10
2023-01-19T21:35:55.029Z,-1.20
2023-01-19T21:38:22.664Z,-1.20
2023-01-19T21:40:50.456Z,-0.90
2023-01-19T21:43:22.490Z,-0.60
2023-01-19T21:45:52.832Z,-0.40
2023-01-19T21:48:20.461Z,-0.20
2023-01-19T21:50:56.337Z,-0.20
2023-01-19T21:53:23.760Z,-0.30
2023-01-19T21:55:51.167Z,-0.50
2023-01-19T21:58:23.244Z,-0.80
2023-01-19T22:00:51.083Z,-1.00
2023-01-19T22:03:21.443Z,-1.10
2023-01-19T22:05:48.981Z,-1.10
2023-01-19T22:08:16.457Z,-1.10
2023-01-19T22:10:43.852Z,-1.20
2023-01-19T22:13:11.426Z,-1.20
2023-01-19T22:15:38.694Z,-1.20
2023-01-19T22:18:05.944Z,-1.20
2023-01-19T22:20:33.349Z,-1.20
2023-01-19T22:23:00.756Z,-1.30
2023-01-19T22:25:28.437Z,-1.50
2023-01-19T22:27:56.299Z,-1.60
2023-01-19T22:30:23.802Z,-1.70
2023-01-19T22:32:51.286Z,-1.80
2023-01-19T22:35:19.947Z,-2.10
2023-01-19T22:37:47.399Z,-2.20
2023-01-19T22:40:14.835Z,-2.20
2023-01-19T22:42:45.540Z,-2.20
2023-01-19T22:45:13.464Z,-2.30
2023-01-19T22:47:41.445Z,-2.40
2023-01-19T22:50:09.481Z,-2.40
2023-01-19T22:52:36.929Z,-2.30
2023-01-19T22:55:04.688Z,-2.30
2023-01-19T22:57:36.010Z,-2.10
2023-01-19T23:00:08.995Z,-1.80
2023-01-19T23:02:36.630Z,-1.50
2023-01-19T23:05:04.181Z,-1.30
2023-01-19T23:07:31.930Z,-1.00
2023-01-19T23:09:59.448Z,-0.90
2023-01-19T23:12:27.015Z,-0.80
2023-01-19T23:14:54.595Z,-0.80
2023-01-19T23:17:22.050Z,-0.80
2023-01-19T23:19:49.540Z,-0.80
2023-01-19T23:22:17.029Z,-0.90
2023-01-19T23:24:44.660Z,-0.90
2023-01-19T23:27:18.273Z,-0.70
2023-01-19T23:29:45.932Z,-0.60
2023-01-19T23:32:13.774Z,-0.70
2023-01-19T23:34:41.459Z,-0.90
2023-01-19T23:37:09.092Z,-1.10
2023-01-19T23:39:45.373Z,-1.30
2023-01-19T23:42:14.299Z,-1.30
2023-01-19T23:44:44.451Z,-1.40
2023-01-19T23:47:33.201Z,-1.50
2023-01-19T23:50:53.002Z,-1.60
2023-01-19T23:53:20.740Z,-1.60
2023-01-19T23:56:16.674Z,-1.60
2023-01-19T23:58:50.233Z,-1.50
